createdAt,value
2024-02-28T00:02:03.268Z,8.02
2024-02-28T00:04:13.283Z,8.00
2024-02-28T00:06:23.451Z,8.00
2024-02-28T00:08:33.626Z,8.00
2024-02-28T00:10:43.675Z,8.02
2024-02-28T00:12:53.606Z,8.03
2024-02-28T00:15:03.597Z,8.04
2024-02-28T00:17:15.387Z,8.04
2024-02-28T00:19:26.964Z,8.04
2024-02-28T00:21:36.845Z,8.04
2024-02-28T00:23:46.994Z,8.05
2024-02-28T00:25:57.203Z,8.05
2024-02-28T00:28:07.269Z,8.07
2024-02-28T00:30:18.532Z,8.10
2024-02-28T00:32:28.693Z,8.13
2024-02-28T00:34:38.604Z,8.15
2024-02-28T00:36:55.594Z,8.14
2024-02-28T00:39:06.454Z,8.12
2024-02-28T00:41:16.776Z,8.10
2024-02-28T00:43:26.701Z,8.08
2024-02-28T00:45:36.520Z,8.08
2024-02-28T00:47:46.568Z,8.09
2024-02-28T00:49:57.686Z,8.10
2024-02-28T00:52:07.969Z,8.10
2024-02-28T00:54:18.152Z,8.10
2024-02-28T00:56:28.741Z,8.11
2024-02-28T00:58:38.665Z,8.13
2024-02-28T01:00:48.974Z,8.14
2024-02-28T01:02:59.063Z,8.16
2024-02-28T01:05:09.969Z,8.18
2024-02-28T01:07:20.452Z,8.20
2024-02-28T01:09:30.467Z,8.22
2024-02-28T01:11:40.673Z,8.22
2024-02-28T01:13:50.745Z,8.23
2024-02-28T01:16:01.540Z,8.27
2024-02-28T01:18:11.768Z,8.29
2024-02-28T01:20:22.106Z,8.33
2024-02-28T01:22:31.952Z,8.35
2024-02-28T01:24:42.249Z,8.37
2024-02-28T01:26:52.513Z,8.36
2024-02-28T01:29:02.437Z,8.36
2024-02-28T01:31:12.854Z,8.37
2024-02-28T01:33:23.057Z,8.38
2024-02-28T01:35:32.822Z,8.40
2024-02-28T01:37:43.089Z,8.41
2024-02-28T01:39:53.124Z,8.41
2024-02-28T01:42:03.027Z,8.41
2024-02-28T01:44:13.038Z,8.40
2024-02-28T01:46:29.506Z,8.42
2024-02-28T01:48:39.638Z,8.44
2024-02-28T01:50:49.562Z,8.46
2024-02-28T01:52:59.901Z,8.47
2024-02-28T01:55:12.067Z,8.46
2024-02-28T01:57:22.342Z,8.47
2024-02-28T01:59:33.164Z,8.48
2024-02-28T02:01:44.861Z,8.48
2024-02-28T02:03:55.055Z,8.49
2024-02-28T02:06:05.480Z,8.51
2024-02-28T02:08:15.503Z,8.52
2024-02-28T02:10:25.312Z,8.53
2024-02-28T02:12:35.320Z,8.56
2024-02-28T02:14:50.021Z,8.59
2024-02-28T02:16:59.975Z,8.62
2024-02-28T02:19:11.862Z,8.65
2024-02-28T02:21:25.894Z,8.67
2024-02-28T02:23:37.082Z,8.68
2024-02-28T02:25:51.590Z,8.69
2024-02-28T02:28:01.709Z,8.68
2024-02-28T02:30:13.571Z,8.69
2024-02-28T02:32:23.711Z,8.70
2024-02-28T02:34:34.280Z,8.71
2024-02-28T02:36:44.303Z,8.73
2024-02-28T02:38:54.052Z,8.73
2024-02-28T02:41:04.306Z,8.74
2024-02-28T02:43:14.295Z,8.75
2024-02-28T02:45:24.406Z,8.74
2024-02-28T02:47:34.279Z,8.74
2024-02-28T02:49:44.476Z,8.75
2024-02-28T02:51:54.642Z,8.77
2024-02-28T02:54:04.717Z,8.78
2024-02-28T02:56:14.675Z,8.78
2024-02-28T02:58:24.657Z,8.80
2024-02-28T03:00:34.534Z,8.81
2024-02-28T03:02:45.135Z,8.81
2024-02-28T03:04:54.900Z,8.80
2024-02-28T03:07:05.127Z,8.81
2024-02-28T03:09:15.099Z,8.82
2024-02-28T03:11:25.114Z,8.84
2024-02-28T03:13:34.868Z,8.87
2024-02-28T03:15:45.233Z,8.91
2024-02-28T03:17:55.325Z,8.94
2024-02-28T03:20:05.293Z,8.98
2024-02-28T03:22:15.249Z,9.02
2024-02-28T03:24:25.254Z,9.04
2024-02-28T03:26:34.982Z,9.07
2024-02-28T03:28:44.774Z,9.09
2024-02-28T03:30:54.960Z,9.09
2024-02-28T03:33:05.634Z,9.11
2024-02-28T03:35:15.635Z,9.12
2024-02-28T03:37:25.811Z,9.14
2024-02-28T03:39:35.720Z,9.16
2024-02-28T03:41:45.632Z,9.17
2024-02-28T03:43:55.962Z,9.16
2024-02-28T03:46:06.125Z,9.15
2024-02-28T03:48:16.011Z,9.13
2024-02-28T03:50:25.987Z,9.13
2024-02-28T03:52:35.932Z,9.16
2024-02-28T03:54:47.341Z,9.20
2024-02-28T03:56:57.821Z,9.24
2024-02-28T03:59:07.650Z,9.25
2024-02-28T04:01:18.315Z,9.23
2024-02-28T04:03:28.858Z,9.20
2024-02-28T04:05:38.786Z,9.17
2024-02-28T04:07:48.783Z,9.14
2024-02-28T04:09:58.810Z,9.14
2024-02-28T04:12:09.342Z,9.13
2024-02-28T04:14:19.187Z,9.15
2024-02-28T04:16:29.209Z,9.18
2024-02-28T04:18:39.464Z,9.23
2024-02-28T04:20:49.342Z,9.28
2024-02-28T04:22:59.477Z,9.32
2024-02-28T04:25:11.142Z,9.36
2024-02-28T04:27:21.154Z,9.39
2024-02-28T04:29:31.023Z,9.41
2024-02-28T04:31:43.271Z,9.40
2024-02-28T04:33:53.646Z,9.39
2024-02-28T04:36:03.638Z,9.37
2024-02-28T04:38:13.626Z,9.33
2024-02-28T04:40:24.051Z,9.31
2024-02-28T04:42:33.862Z,9.30
2024-02-28T04:44:43.749Z,9.30
2024-02-28T04:46:54.147Z,9.33
2024-02-28T04:49:04.069Z,9.39
2024-02-28T04:51:13.991Z,9.45
2024-02-28T04:53:24.043Z,9.50
2024-02-28T04:55:34.019Z,9.53
2024-02-28T04:57:44.137Z,9.55
2024-02-28T04:59:54.507Z,9.58
2024-02-28T05:02:05.016Z,9.59
2024-02-28T05:04:15.914Z,9.60
2024-02-28T05:06:25.728Z,9.58
2024-02-28T05:08:37.360Z,9.56
2024-02-28T05:10:47.379Z,9.55
2024-02-28T05:12:57.564Z,9.56
2024-02-28T05:15:08.787Z,9.56
2024-02-28T05:17:18.984Z,9.57
2024-02-28T05:19:28.936Z,9.57
2024-02-28T05:21:44.809Z,9.58
2024-02-28T05:23:54.753Z,9.60
2024-02-28T05:26:05.744Z,9.63
2024-02-28T05:28:15.417Z,9.65
2024-02-28T05:30:25.601Z,9.65
2024-02-28T05:32:35.621Z,9.64
2024-02-28T05:34:47.291Z,9.64
2024-02-28T05:36:57.234Z,9.65
2024-02-28T05:39:09.747Z,9.66
2024-02-28T05:41:20.963Z,9.68
2024-02-28T05:43:31.165Z,9.68
2024-02-28T05:45:41.629Z,9.70
2024-02-28T05:47:51.658Z,9.70
2024-02-28T05:50:01.885Z,9.71
2024-02-28T05:52:12.707Z,9.72
2024-02-28T05:54:22.744Z,9.72
2024-02-28T05:56:32.808Z,9.70
2024-02-28T05:58:42.713Z,9.66
2024-02-28T06:00:52.546Z,9.63
2024-02-28T06:03:02.605Z,9.62
2024-02-28T06:05:13.757Z,9.62
2024-02-28T06:07:25.906Z,9.63
2024-02-28T06:09:35.672Z,9.63
2024-02-28T06:11:45.986Z,9.65
2024-02-28T06:13:56.850Z,9.66
2024-02-28T06:16:07.502Z,9.68
2024-02-28T06:18:17.552Z,9.67
2024-02-28T06:20:27.348Z,9.65
2024-02-28T06:22:37.387Z,9.64
2024-02-28T06:24:47.272Z,9.64
2024-02-28T06:26:57.300Z,9.63
2024-02-28T06:29:08.011Z,9.63
2024-02-28T06:31:21.627Z,9.64
2024-02-28T06:33:31.433Z,9.66
2024-02-28T06:35:42.405Z,9.69
2024-02-28T06:37:53.405Z,9.72
2024-02-28T06:40:03.427Z,9.73
2024-02-28T06:42:13.321Z,9.74
2024-02-28T06:44:23.346Z,9.75
2024-02-28T06:46:33.341Z,9.76
2024-02-28T06:48:43.322Z,9.77
2024-02-28T06:50:53.566Z,9.78
2024-02-28T06:53:03.439Z,9.80
2024-02-28T06:55:15.568Z,9.81
2024-02-28T06:57:25.523Z,9.81
2024-02-28T06:59:35.972Z,9.82
2024-02-28T07:01:46.199Z,9.82
2024-02-28T07:03:56.183Z,9.82
2024-02-28T07:06:07.300Z,9.82
2024-02-28T07:08:17.252Z,9.82
2024-02-28T07:10:26.950Z,9.83
2024-02-28T07:12:36.886Z,9.82
2024-02-28T07:14:47.166Z,9.82
2024-02-28T07:16:57.140Z,9.82
2024-02-28T07:19:07.062Z,9.81
2024-02-28T07:21:17.026Z,9.81
2024-02-28T07:23:27.258Z,9.79
2024-02-28T07:25:37.097Z,9.78
2024-02-28T07:27:47.122Z,9.78
2024-02-28T07:29:57.044Z,9.78
2024-02-28T07:32:07.192Z,9.79
2024-02-28T07:34:17.889Z,9.79
2024-02-28T07:36:28.247Z,9.80
2024-02-28T07:38:38.364Z,9.82
2024-02-28T07:40:48.533Z,9.82
2024-02-28T07:42:58.383Z,9.81
2024-02-28T07:45:10.177Z,9.81
2024-02-28T07:47:20.677Z,9.81
2024-02-28T07:49:30.682Z,9.81
2024-02-28T07:51:42.188Z,9.81
2024-02-28T07:53:51.966Z,9.80
2024-02-28T07:56:02.318Z,9.80
2024-02-28T07:58:12.329Z,9.81
2024-02-28T08:00:22.663Z,9.81
2024-02-28T08:02:33.568Z,9.81
2024-02-28T08:04:43.530Z,9.81
2024-02-28T08:06:53.726Z,9.82
2024-02-28T08:09:05.763Z,9.80
2024-02-28T08:11:15.878Z,9.80
2024-02-28T08:13:26.280Z,9.80
2024-02-28T08:15:36.007Z,9.80
2024-02-28T08:17:46.349Z,9.80
2024-02-28T08:19:56.493Z,9.82
2024-02-28T08:22:06.816Z,9.83
2024-02-28T08:24:16.857Z,9.83
2024-02-28T08:26:27.127Z,9.83
2024-02-28T08:28:37.192Z,9.82
2024-02-28T08:30:47.216Z,9.80
2024-02-28T08:32:57.052Z,9.79
2024-02-28T08:35:07.519Z,9.81
2024-02-28T08:37:18.765Z,9.83
2024-02-28T08:39:28.803Z,9.86
2024-02-28T08:41:39.264Z,9.89
2024-02-28T08:43:49.045Z,9.89
2024-02-28T08:45:59.559Z,9.89
2024-02-28T08:48:10.953Z,9.90
2024-02-28T08:50:20.984Z,9.92
2024-02-28T08:52:31.208Z,9.93
2024-02-28T08:54:42.224Z,9.93
2024-02-28T08:56:56.771Z,9.94
2024-02-28T08:59:10.409Z,9.95
2024-02-28T09:01:23.643Z,9.95
2024-02-28T09:03:33.778Z,9.97
2024-02-28T09:05:43.714Z,9.98
2024-02-28T09:07:56.485Z,9.98
2024-02-28T09:10:04.178Z,9.98
2024-02-28T09:12:14.473Z,9.99
2024-02-28T09:14:24.234Z,10.01
2024-02-28T09:16:34.051Z,10.02
2024-02-28T09:18:44.040Z,10.01
2024-02-28T09:20:53.788Z,10.00
2024-02-28T09:23:03.657Z,10.00
2024-02-28T09:25:14.186Z,10.00
2024-02-28T09:27:24.331Z,10.00
2024-02-28T09:29:34.484Z,10.01
2024-02-28T09:31:44.391Z,10.02
2024-02-28T09:33:55.559Z,10.02
2024-02-28T09:36:07.474Z,10.02
2024-02-28T09:38:17.686Z,10.01
2024-02-28T09:40:29.679Z,10.00
2024-02-28T09:42:39.766Z,10.00
2024-02-28T09:44:49.865Z,10.01
2024-02-28T09:46:59.802Z,10.02
2024-02-28T09:49:10.330Z,10.02
2024-02-28T09:51:25.430Z,10.03
2024-02-28T09:53:35.812Z,10.03
2024-02-28T09:55:46.007Z,10.03
2024-02-28T09:57:58.113Z,10.04
2024-02-28T10:00:11.514Z,10.05
2024-02-28T10:02:23.096Z,10.05
2024-02-28T10:04:33.190Z,10.05
2024-02-28T10:06:43.677Z,10.04
2024-02-28T10:08:54.728Z,10.04
2024-02-28T10:11:04.545Z,10.04
2024-02-28T10:13:14.736Z,10.03
2024-02-28T10:15:25.261Z,10.04
2024-02-28T10:17:35.067Z,10.04
2024-02-28T10:19:45.331Z,10.04
2024-02-28T10:21:55.508Z,10.05
2024-02-28T10:24:05.856Z,10.05
2024-02-28T10:26:16.401Z,10.04
2024-02-28T10:28:26.680Z,10.04
2024-02-28T10:30:44.205Z,10.05
2024-02-28T10:32:57.770Z,10.05
2024-02-28T10:35:12.174Z,10.05
2024-02-28T10:37:24.422Z,10.04
2024-02-28T10:39:36.905Z,10.03
2024-02-28T10:41:50.332Z,10.02
2024-02-28T10:44:00.064Z,10.02
2024-02-28T10:46:26.294Z,10.00
2024-02-28T10:48:42.049Z,10.01
2024-02-28T10:50:53.045Z,10.01
2024-02-28T10:53:08.302Z,10.01
2024-02-28T10:55:24.904Z,10.02
2024-02-28T10:57:36.218Z,10.01
2024-02-28T10:59:49.067Z,10.02
2024-02-28T11:01:58.997Z,10.01
2024-02-28T11:04:09.574Z,10.03
2024-02-28T11:06:25.961Z,10.02
2024-02-28T11:08:36.563Z,10.01
2024-02-28T11:10:49.903Z,10.00
2024-02-28T11:13:02.187Z,10.01
2024-02-28T11:15:21.460Z,10.00
2024-02-28T11:17:34.007Z,10.00
2024-02-28T11:19:43.904Z,10.00
2024-02-28T11:21:57.427Z,10.00
2024-02-28T11:24:08.172Z,9.98
2024-02-28T11:26:18.264Z,9.97
2024-02-28T11:28:28.442Z,9.97
2024-02-28T11:30:38.671Z,9.96
2024-02-28T11:32:48.817Z,9.97
2024-02-28T11:34:58.625Z,9.99
2024-02-28T11:37:09.219Z,10.00
2024-02-28T11:39:22.921Z,10.00
2024-02-28T11:41:33.481Z,10.00
2024-02-28T11:43:51.154Z,10.03
2024-02-28T11:46:02.773Z,10.06
2024-02-28T11:48:14.064Z,10.07
2024-02-28T11:50:24.966Z,10.07
2024-02-28T11:52:35.810Z,10.06
2024-02-28T11:54:45.644Z,10.05
2024-02-28T11:56:58.223Z,10.04
2024-02-28T11:59:09.964Z,10.02
2024-02-28T12:01:19.892Z,10.00
2024-02-28T12:03:29.846Z,9.98
2024-02-28T12:05:43.544Z,9.98
2024-02-28T12:07:56.613Z,9.99
2024-02-28T12:10:08.215Z,10.00
2024-02-28T12:12:20.144Z,10.01
2024-02-28T12:14:30.051Z,9.99
2024-02-28T12:16:41.354Z,9.93
2024-02-28T12:18:52.682Z,9.90
2024-02-28T12:21:02.736Z,9.88
2024-02-28T12:23:12.565Z,9.85
2024-02-28T12:25:22.350Z,9.83
2024-02-28T12:27:32.730Z,9.81
2024-02-28T12:29:42.605Z,9.79
2024-02-28T12:31:52.385Z,9.78
2024-02-28T12:34:02.718Z,9.77
2024-02-28T12:36:13.224Z,9.74
2024-02-28T12:38:24.344Z,9.73
2024-02-28T12:40:34.068Z,9.71
2024-02-28T12:42:44.693Z,9.68
2024-02-28T12:44:54.852Z,9.65
2024-02-28T12:47:04.763Z,9.64
2024-02-28T12:49:14.803Z,9.64
2024-02-28T12:51:44.776Z,9.65
2024-02-28T12:53:54.644Z,9.67
2024-02-28T12:56:04.476Z,9.70
2024-02-28T12:58:14.511Z,9.70
2024-02-28T13:00:25.055Z,9.72
2024-02-28T13:02:35.352Z,9.73
2024-02-28T13:04:45.441Z,9.73
2024-02-28T13:06:55.586Z,9.73
2024-02-28T13:09:06.450Z,9.75
2024-02-28T13:11:16.484Z,9.76
2024-02-28T13:13:27.137Z,9.75
2024-02-28T13:15:37.213Z,9.75
2024-02-28T13:17:48.539Z,9.76
2024-02-28T13:19:58.594Z,9.77
2024-02-28T13:22:08.557Z,9.81
2024-02-28T13:24:20.136Z,9.81
2024-02-28T13:26:30.066Z,9.82
2024-02-28T13:28:41.807Z,9.84
2024-02-28T13:30:53.150Z,9.84
2024-02-28T13:33:03.250Z,9.84
2024-02-28T13:35:14.452Z,9.84
2024-02-28T13:37:24.984Z,9.85
2024-02-28T13:39:36.175Z,9.85
2024-02-28T13:41:46.346Z,9.85
2024-02-28T13:43:56.790Z,9.86
2024-02-28T13:46:06.788Z,9.86
2024-02-28T13:48:22.527Z,9.86
2024-02-28T13:50:33.898Z,9.87
2024-02-28T13:52:43.851Z,9.85
2024-02-28T13:54:53.985Z,9.83
2024-02-28T13:57:06.367Z,9.82
2024-02-28T13:59:16.929Z,9.82
2024-02-28T14:01:26.905Z,9.80
2024-02-28T14:03:37.395Z,9.78
2024-02-28T14:05:48.084Z,9.78
2024-02-28T14:07:58.745Z,9.78
2024-02-28T14:10:11.587Z,9.77
2024-02-28T14:12:21.385Z,9.76
2024-02-28T14:14:31.905Z,9.76
2024-02-28T14:16:41.975Z,9.78
2024-02-28T14:18:51.961Z,9.78
2024-02-28T14:21:05.090Z,9.78
2024-02-28T14:23:16.372Z,9.79
2024-02-28T14:25:26.574Z,9.80
2024-02-28T14:27:36.982Z,9.82
2024-02-28T14:29:46.803Z,9.82
2024-02-28T14:31:56.572Z,9.83
2024-02-28T14:34:06.672Z,9.84
2024-02-28T14:36:16.502Z,9.84
2024-02-28T14:38:26.880Z,9.85
2024-02-28T14:40:36.950Z,9.86
2024-02-28T14:42:47.980Z,9.87
2024-02-28T14:44:58.284Z,9.87
2024-02-28T14:47:08.449Z,9.87
2024-02-28T14:49:18.949Z,9.89
2024-02-28T14:51:28.972Z,9.90
2024-02-28T14:53:38.737Z,9.91
2024-02-28T14:55:48.854Z,9.93
2024-02-28T14:57:59.095Z,9.94
2024-02-28T15:00:12.290Z,9.96
2024-02-28T15:02:22.837Z,9.97
2024-02-28T15:04:32.606Z,9.97
2024-02-28T15:06:42.599Z,9.97
2024-02-28T15:08:52.521Z,9.96
2024-02-28T15:11:02.580Z,9.95
2024-02-28T15:13:12.429Z,9.92
2024-02-28T15:15:23.043Z,9.90
2024-02-28T15:17:33.205Z,9.88
2024-02-28T15:19:43.106Z,9.88
2024-02-28T15:21:53.063Z,9.88
2024-02-28T15:24:03.072Z,9.89
2024-02-28T15:26:12.959Z,9.88
2024-02-28T15:28:23.024Z,9.84
2024-02-28T15:30:32.919Z,9.78
2024-02-28T15:32:43.961Z,9.70
2024-02-28T15:34:54.474Z,9.64
2024-02-28T15:37:04.351Z,9.63
2024-02-28T15:39:14.476Z,9.64
2024-02-28T15:41:25.439Z,9.66
2024-02-28T15:43:36.432Z,9.71
2024-02-28T15:45:46.642Z,9.78
2024-02-28T15:47:56.766Z,9.84
2024-02-28T15:50:10.303Z,9.90
2024-02-28T15:52:20.307Z,9.95
2024-02-28T15:54:30.232Z,10.00
2024-02-28T15:56:41.417Z,10.04
2024-02-28T15:58:51.500Z,10.07
2024-02-28T16:01:01.983Z,10.09
2024-02-28T16:03:12.438Z,10.10
2024-02-28T16:05:26.343Z,10.11
2024-02-28T16:07:36.602Z,10.12
2024-02-28T16:09:47.442Z,10.14
2024-02-28T16:11:58.356Z,10.15
2024-02-28T16:14:08.428Z,10.16
2024-02-28T16:16:19.104Z,10.19
2024-02-28T16:18:30.053Z,10.20
2024-02-28T16:20:40.092Z,10.22
2024-02-28T16:22:50.478Z,10.24
2024-02-28T16:25:00.539Z,10.25
2024-02-28T16:27:10.814Z,10.25
2024-02-28T16:29:21.190Z,10.26
2024-02-28T16:31:31.315Z,10.27
2024-02-28T16:33:42.005Z,10.27
2024-02-28T16:35:52.242Z,10.23
2024-02-28T16:38:02.153Z,10.16
2024-02-28T16:40:13.261Z,10.11
2024-02-28T16:42:26.257Z,10.08
2024-02-28T16:44:36.251Z,10.05
2024-02-28T16:46:46.729Z,10.04
2024-02-28T16:48:56.780Z,10.00
2024-02-28T16:51:07.226Z,9.98
2024-02-28T16:53:17.446Z,9.97
2024-02-28T16:55:27.767Z,9.95
2024-02-28T16:57:42.173Z,9.94
2024-02-28T16:59:52.648Z,9.93
2024-02-28T17:02:02.631Z,9.92
2024-02-28T17:04:12.582Z,9.91
2024-02-28T17:06:23.161Z,9.90
2024-02-28T17:08:34.436Z,9.89
2024-02-28T17:10:45.020Z,9.89
2024-02-28T17:12:54.814Z,9.89
2024-02-28T17:15:04.754Z,9.88
2024-02-28T17:17:16.390Z,9.89
2024-02-28T17:19:26.544Z,9.90
2024-02-28T17:21:37.229Z,9.93
2024-02-28T17:23:47.114Z,9.96
2024-02-28T17:25:57.236Z,9.98
2024-02-28T17:28:07.507Z,10.00
2024-02-28T17:30:17.873Z,10.03
2024-02-28T17:32:28.406Z,10.05
2024-02-28T17:34:38.387Z,10.05
2024-02-28T17:36:49.102Z,10.05
2024-02-28T17:38:58.867Z,10.07
2024-02-28T17:41:10.278Z,10.09
2024-02-28T17:43:20.922Z,10.10
2024-02-28T17:45:31.226Z,10.13
2024-02-28T17:47:41.556Z,10.15
2024-02-28T17:49:51.692Z,10.18
2024-02-28T17:52:01.770Z,10.22
2024-02-28T17:54:11.995Z,10.25
2024-02-28T17:56:22.152Z,10.26
2024-02-28T17:58:32.667Z,10.24
2024-02-28T18:00:42.843Z,10.24
2024-02-28T18:02:52.796Z,10.24
2024-02-28T18:05:02.805Z,10.26
2024-02-28T18:07:12.749Z,10.26
2024-02-28T18:09:23.367Z,10.27
2024-02-28T18:11:34.837Z,10.28
2024-02-28T18:13:44.923Z,10.30
2024-02-28T18:15:55.570Z,10.32
2024-02-28T18:18:06.221Z,10.35
2024-02-28T18:20:16.381Z,10.36
2024-02-28T18:22:26.642Z,10.37
2024-02-28T18:24:36.556Z,10.40
2024-02-28T18:26:46.402Z,10.44
2024-02-28T18:28:58.772Z,10.46
2024-02-28T18:31:09.728Z,10.49
2024-02-28T18:33:19.804Z,10.50
2024-02-28T18:35:32.950Z,10.52
2024-02-28T18:37:43.826Z,10.52
2024-02-28T18:39:53.826Z,10.53
2024-02-28T18:42:03.878Z,10.53
2024-02-28T18:44:16.270Z,10.53
2024-02-28T18:46:25.988Z,10.54
2024-02-28T18:48:38.380Z,10.53
2024-02-28T18:50:48.530Z,10.52
2024-02-28T18:52:58.317Z,10.51
2024-02-28T18:55:09.183Z,10.49
2024-02-28T18:57:19.429Z,10.48
2024-02-28T18:59:29.437Z,10.46
2024-02-28T19:01:39.428Z,10.43
2024-02-28T19:03:49.615Z,10.41
2024-02-28T19:06:00.120Z,10.39
2024-02-28T19:08:10.614Z,10.40
2024-02-28T19:10:22.025Z,10.40
2024-02-28T19:12:32.860Z,10.42
2024-02-28T19:14:42.664Z,10.44
2024-02-28T19:16:53.247Z,10.47
2024-02-28T19:19:03.908Z,10.47
2024-02-28T19:21:13.913Z,10.49
2024-02-28T19:23:24.180Z,10.51
2024-02-28T19:25:34.443Z,10.54
2024-02-28T19:27:44.586Z,10.57
2024-02-28T19:29:54.487Z,10.58
2024-02-28T19:32:04.341Z,10.61
2024-02-28T19:34:15.282Z,10.63
2024-02-28T19:36:25.239Z,10.64
2024-02-28T19:38:35.199Z,10.66
2024-02-28T19:40:45.172Z,10.67
2024-02-28T19:42:55.124Z,10.69
2024-02-28T19:45:05.226Z,10.70
2024-02-28T19:47:15.065Z,10.70
2024-02-28T19:49:26.408Z,10.71
2024-02-28T19:51:36.480Z,10.70
2024-02-28T19:53:46.708Z,10.70
2024-02-28T19:55:56.722Z,10.70
2024-02-28T19:58:07.418Z,10.70
2024-02-28T20:00:19.406Z,10.70
2024-02-28T20:02:29.435Z,10.69
2024-02-28T20:04:39.477Z,10.70
2024-02-28T20:06:49.432Z,10.68
2024-02-28T20:08:59.556Z,10.68
2024-02-28T20:11:10.117Z,10.66
2024-02-28T20:13:20.230Z,10.65
2024-02-28T20:15:30.147Z,10.65
2024-02-28T20:17:40.071Z,10.65
2024-02-28T20:19:50.708Z,10.65
2024-02-28T20:22:00.680Z,10.64
2024-02-28T20:24:10.982Z,10.63
2024-02-28T20:26:22.235Z,10.63
2024-02-28T20:28:32.360Z,10.63
2024-02-28T20:30:42.301Z,10.62
2024-02-28T20:32:52.638Z,10.63
2024-02-28T20:35:02.630Z,10.63
2024-02-28T20:37:12.509Z,10.62
2024-02-28T20:39:22.794Z,10.62
2024-02-28T20:41:35.139Z,10.60
2024-02-28T20:43:45.207Z,10.59
2024-02-28T20:45:56.296Z,10.58
2024-02-28T20:48:06.380Z,10.58
2024-02-28T20:50:17.267Z,10.58
2024-02-28T20:52:27.547Z,10.57
2024-02-28T20:54:37.635Z,10.57
2024-02-28T20:56:49.074Z,10.57
2024-02-28T20:59:00.704Z,10.57
2024-02-28T21:01:10.689Z,10.57
2024-02-28T21:03:21.158Z,10.58
2024-02-28T21:05:32.213Z,10.58
2024-02-28T21:07:51.749Z,10.58
2024-02-28T21:10:03.238Z,10.58
2024-02-28T21:12:15.293Z,10.58
2024-02-28T21:14:25.173Z,10.58
2024-02-28T21:16:34.928Z,10.58
2024-02-28T21:18:44.952Z,10.58
2024-02-28T21:20:56.572Z,10.58
2024-02-28T21:23:06.690Z,10.58
2024-02-28T21:25:16.687Z,10.59
2024-02-28T21:27:26.618Z,10.59
2024-02-28T21:29:36.721Z,10.59
2024-02-28T21:31:46.828Z,10.61
2024-02-28T21:33:57.804Z,10.61
2024-02-28T21:36:08.104Z,10.62
2024-02-28T21:38:18.707Z,10.63
2024-02-28T21:40:29.554Z,10.64
2024-02-28T21:42:40.014Z,10.64
2024-02-28T21:44:50.388Z,10.65
2024-02-28T21:47:02.640Z,10.66
2024-02-28T21:49:13.972Z,10.66
2024-02-28T21:51:25.173Z,10.66
2024-02-28T21:53:35.165Z,10.65
2024-02-28T21:55:45.692Z,10.64
2024-02-28T21:57:56.419Z,10.64
2024-02-28T22:00:06.782Z,10.64
2024-02-28T22:02:20.031Z,10.63
2024-02-28T22:04:29.861Z,10.61
2024-02-28T22:06:40.270Z,10.62
2024-02-28T22:08:50.170Z,10.62
2024-02-28T22:10:59.969Z,10.62
2024-02-28T22:13:10.936Z,10.63
2024-02-28T22:15:21.166Z,10.63
2024-02-28T22:17:31.027Z,10.65
2024-02-28T22:19:41.045Z,10.66
2024-02-28T22:21:51.496Z,10.68
2024-02-28T22:24:01.512Z,10.69
2024-02-28T22:26:11.420Z,10.70
2024-02-28T22:28:21.564Z,10.70
2024-02-28T22:30:32.259Z,10.71
2024-02-28T22:32:42.138Z,10.70
2024-02-28T22:34:52.052Z,10.69
2024-02-28T22:37:02.546Z,10.68
2024-02-28T22:39:13.522Z,10.68
2024-02-28T22:41:27.835Z,10.68
2024-02-28T22:43:37.667Z,10.69
2024-02-28T22:45:48.021Z,10.68
2024-02-28T22:47:58.469Z,10.67
2024-02-28T22:50:09.467Z,10.66
2024-02-28T22:52:19.732Z,10.65
2024-02-28T22:54:29.772Z,10.65
2024-02-28T22:56:39.734Z,10.65
2024-02-28T22:58:49.694Z,10.65
2024-02-28T23:00:59.609Z,10.65
2024-02-28T23:03:10.065Z,10.64
2024-02-28T23:05:20.339Z,10.64
2024-02-28T23:07:30.310Z,10.64
2024-02-28T23:09:40.085Z,10.63
2024-02-28T23:11:50.761Z,10.62
2024-02-28T23:14:00.817Z,10.62
2024-02-28T23:16:11.300Z,10.63
2024-02-28T23:18:21.247Z,10.64
2024-02-28T23:20:35.281Z,10.63
2024-02-28T23:22:45.725Z,10.63
2024-02-28T23:24:55.672Z,10.63
2024-02-28T23:27:05.653Z,10.61
2024-02-28T23:29:15.567Z,10.61
2024-02-28T23:31:25.403Z,10.61
2024-02-28T23:33:35.269Z,10.60
2024-02-28T23:35:45.768Z,10.61
2024-02-28T23:37:55.827Z,10.61
2024-02-28T23:40:08.185Z,10.61
2024-02-28T23:42:15.901Z,10.61
2024-02-28T23:44:25.881Z,10.59
2024-02-28T23:46:35.679Z,10.59
2024-02-28T23:48:45.653Z,10.58
2024-02-28T23:50:56.110Z,10.57
2024-02-28T23:53:06.655Z,10.57
2024-02-28T23:55:17.028Z,10.57
2024-02-28T23:57:27.523Z,10.57
2024-02-28T23:59:37.597Z,10.58
